• Join FlightAware (Why Join?)
  • Login
  • US Flag 
10:15AM EDT


 

Airport Tracker/Info


-or-


 

Live Flight TrackerFlight Track Log ✈ SKW5550 ✈ 20-Oct-2013 ✈ KCOD - KDEN

Flight Track Log - Related Links

Times and Time Zones

All times are in EDT time to prevent confusion due to time zone crossing. See the SKW5550 flight status page for this flight to view local times or setup timezone preferences in your user account.

Time Position Orientation Groundspeed Altitude Reporting Facility
EDT Latitude Longitude Course Direction KTS MPH feet Rate Location/Type
09:44AM 44.5053 -109.0567 142° Southeast 153 176 5,900  Level Salt Lake Center
09:45AM 43.9993 -108.4958 156° South  Level Estimated
09:45AM 44.4542 -109.0778 196° South 256 295 7,900  Level Salt Lake Center
09:46AM 43.9036 -108.4000 142° Southeast  Level Estimated
09:46AM 44.4697 -109.0008 74° East 247 284 9,300  Level Salt Lake Center
09:47AM 43.7927 -108.3444 160° South  Level FlightAware Approximate
09:47AM 44.5375 -108.9672 19° North 250 288 12,100  Level Salt Lake Center
09:48AM 43.6973 -108.2483 144° Southeast  Level Estimated
09:48AM 44.5272 -108.8519 97° East 303 349 14,200  Level Salt Lake Center
09:49AM 43.6019 -108.1526 142° Southeast  Level Estimated
09:49AM 44.4503 -108.7703 143° Southeast 341 392 16,600  Level Salt Lake Center
09:50AM 44.3686 -108.6975 147° Southeast 348 400 18,500 1,860 Climbing Salt Lake Center
09:51AM 44.2847 -108.6222 147° Southeast 355 409 20,500 1,800 Climbing Salt Lake Center
09:52AM 44.1992 -108.5461 147° Southeast 363 418 22,200 1,440 Climbing Salt Lake Center
09:53AM 44.1100 -108.4689 148° Southeast 374 430 23,500 1,260 Climbing Salt Lake Center
09:54AM 44.0186 -108.3872 147° Southeast 389 448 24,800 1,080 Climbing Salt Lake Center
09:55AM 43.9047 -108.2889 148° Southeast 402 463 25,800 1,020 Climbing Salt Lake Center
09:56AM 43.8072 -108.2025 147° Southeast 415 478 26,900 900 Climbing Salt Lake Center
09:57AM 43.7058 -108.1169 149° Southeast 426 490 27,700 660 Climbing Salt Lake Center
09:58AM 43.6036 -108.0247 147° Southeast 440 506 28,300 600 Climbing Salt Lake Center
09:59AM 43.4978 -107.9344 148° Southeast 448 516 29,000 600 Climbing Salt Lake Center
10:00AM 43.3903 -107.8436 148° Southeast 454 522 29,600 480 Climbing Salt Lake Center
10:01AM 43.2800 -107.7492 148° Southeast 467 537 30,000 540 Climbing Salt Lake Center
10:02AM 43.1694 -107.6536 148° Southeast 471 542 30,800 480 Climbing Salt Lake Center
10:03AM 43.0583 -107.5597 148° Southeast 472 543 31,000 60 Climbing Salt Lake Center
10:04AM 42.9483 -107.4669 148° Southeast 468 539 31,000  Level Salt Lake Center
10:05AM 42.8369 -107.3731 148° Southeast 458 527 31,000  Level Salt Lake Center
10:06AM 42.7333 -107.2856 148° Southeast 457 526 31,000  Level Denver Center
10:07AM 42.6239 -107.1944 149° Southeast 459 528 31,000  Level Denver Center
10:08AM 42.5050 -107.0953 148° Southeast 465 535 31,000  Level Denver Center
10:09AM 42.3978 -107.0061 148° Southeast 470 541 31,000  Level Denver Center
10:10AM 42.2906 -106.9175 149° Southeast 471 542 31,000  Level Denver Center
10:11AM 42.1669 -106.8172 149° Southeast 466 536 31,000  Level Denver Center
10:12AM 42.0611 -106.7292 148° Southeast 467 537 31,000  Level Denver Center
10:13AM 41.9547 -106.6328 146° Southeast 478 550 31,000  Level Denver Center
10:14AM 41.8272 -106.5172 146° Southeast 492 566 31,000  Level Denver Center
10:15AM 41.7131 -106.4164 147° Southeast 499 574 31,000  Level Denver Center
10:16AM 41.5853 -106.3014 146° Southeast 498 573 31,000  Level Denver Center
10:17AM 41.4772 -106.2050 146° Southeast 491 565 31,000  Level Denver Center
10:19AM 41.3719 -106.1128 147° Southeast 478 550 31,000  Level Denver Center
10:20AM 41.2478 -106.0028 146° Southeast 481 554 31,000  Level Denver Center
10:21AM 41.1403 -105.9097 147° Southeast 483 556 31,000 -540 Level Denver Center
10:22AM 41.0136 -105.7964 146° Southeast 492 566 29,900 -1,260 Descending Denver Center
10:23AM 40.9125 -105.7092 147° Southeast 474 545 28,500 -1,440 Descending Denver Center
10:24AM 40.8094 -105.6203 147° Southeast 449 517 27,000 -1,500 Descending Denver Center
10:25AM 40.7100 -105.5353 147° Southeast 432 497 25,500 -1,500 Descending Denver Center
10:26AM 40.6144 -105.4508 146° Southeast 417 480 24,000 -1,740 Descending Denver Center
10:27AM 40.5306 -105.3086 128° Southeast 412 474 22,000 -1,800 Descending Denver Center
10:28AM 40.4589 -105.2081 133° Southeast 399 459 20,400 -1,620 Descending Denver Center
10:29AM 40.3678 -105.1367 149° Southeast 356 410 18,800 -1,560 Descending Denver Center
10:30AM 40.2817 -105.0681 149° Southeast 359 413 17,300 -1,500 Descending Denver Center
10:31AM 40.1844 -105.0542 174° South 352 405 15,800 -1,560 Descending Denver Center
10:32AM 40.0881 -105.0650 185° South 323 372 14,100 -1,620 Descending Denver Center
10:33AM 40.0056 -105.0781 187° South 302 348 12,600 -1,560 Descending Denver Center
10:34AM 39.9186 -105.0642 173° South 304 350 11,000 -1,500 Descending Denver Center
10:35AM 39.8561 -105.0028 143° Southeast 290 334 9,500 -1,020 Descending Denver Center
10:36AM 39.8414 -104.9147 102° East 250 288 8,900 -1,020 Descending Denver Center
10:37AM 39.8414 -104.8333 90° East 214 246 7,400 -1,320 Descending Denver Center
10:38AM 39.8414 -104.7831 90° East 146 168 6,200 -1,020 Descending Denver Center
10:39AM 39.8406 -104.7325 91° East 133 153 5,400 -480 Descending Denver Center
10:40AM 39.8417 -104.6889 88° East 130 150 5,300 -120 Descending Denver Center